createdAt,value
2019-03-25T07:41:08.956Z,7.20
2019-03-25T07:42:09.124Z,7.25
2019-03-25T07:43:09.291Z,7.28
2019-03-25T07:44:09.456Z,7.42
2019-03-25T07:45:09.625Z,7.36
2019-03-25T07:46:09.794Z,7.18
2019-03-25T07:47:09.958Z,7.05
2019-03-25T07:48:10.133Z,7.14
2019-03-25T07:49:10.295Z,7.93
2019-03-25T07:50:10.463Z,8.51
2019-03-25T07:51:10.639Z,8.99
2019-03-25T07:52:10.807Z,9.10
2019-03-25T07:53:10.975Z,8.76
2019-03-25T07:54:11.163Z,8.63
2019-03-25T07:55:11.334Z,8.58
2019-03-25T07:56:11.479Z,9.02
2019-03-25T07:57:11.902Z,9.66
2019-03-25T07:58:11.830Z,10.12
2019-03-25T07:59:11.998Z,10.04
2019-03-25T08:00:13.717Z,9.92
2019-03-25T08:01:12.349Z,10.23
2019-03-25T08:02:15.095Z,10.42
2019-03-25T08:03:12.671Z,10.63
2019-03-25T08:04:12.840Z,10.07
2019-03-25T08:05:13.009Z,9.77
2019-03-25T08:06:13.188Z,9.65
2019-03-25T08:07:13.352Z,9.32
2019-03-25T08:08:13.532Z,9.02
2019-03-25T08:09:13.722Z,8.85
2019-03-25T08:10:13.901Z,8.89
2019-03-25T08:11:14.060Z,8.64
2019-03-25T08:12:14.219Z,8.51
2019-03-25T08:13:14.501Z,8.46
2019-03-25T08:14:14.552Z,8.55
2019-03-25T08:15:14.740Z,8.82
2019-03-25T08:16:14.907Z,8.84
2019-03-25T08:17:15.065Z,8.97
2019-03-25T08:18:15.238Z,9.00
2019-03-25T08:19:15.407Z,8.88
2019-03-25T08:20:15.578Z,8.82
2019-03-25T08:21:15.749Z,8.94
2019-03-25T08:22:15.919Z,8.91
2019-03-25T08:23:16.090Z,8.79
2019-03-25T08:24:16.260Z,8.69
2019-03-25T08:25:16.433Z,8.63
2019-03-25T08:26:16.604Z,8.53
2019-03-25T08:27:16.776Z,8.42
2019-03-25T08:28:16.946Z,8.45
2019-03-25T08:29:17.118Z,8.27
2019-03-25T08:30:17.289Z,8.42
2019-03-25T08:31:17.459Z,8.30
2019-03-25T08:32:17.630Z,8.33
2019-03-25T08:33:17.802Z,8.36
2019-03-25T08:34:17.975Z,8.28
2019-03-25T08:35:18.142Z,8.38
2019-03-25T08:36:18.315Z,8.48
2019-03-25T08:37:18.484Z,8.55
2019-03-25T08:38:18.652Z,8.61
2019-03-25T08:39:18.827Z,8.52
2019-03-25T08:40:19.001Z,8.36
2019-03-25T08:41:19.172Z,8.20
2019-03-25T08:42:19.346Z,8.13
2019-03-25T08:43:19.511Z,8.20
2019-03-25T08:44:19.684Z,8.18
2019-03-25T08:45:19.856Z,8.10
2019-03-25T08:46:20.025Z,8.05
2019-03-25T08:47:20.200Z,7.97
2019-03-25T08:48:20.371Z,7.83
2019-03-25T08:49:20.542Z,7.77
2019-03-25T08:50:20.722Z,7.72
2019-03-25T08:51:20.886Z,7.79
2019-03-25T08:52:21.055Z,8.03
2019-03-25T08:53:21.227Z,8.24
2019-03-25T08:54:21.974Z,8.42
2019-03-25T08:55:21.555Z,8.56
2019-03-25T08:56:21.730Z,8.60
2019-03-25T08:57:21.910Z,8.55
2019-03-25T08:58:22.069Z,8.60
2019-03-25T08:59:22.237Z,8.66
2019-03-25T09:00:22.411Z,8.45
2019-03-25T09:01:22.583Z,8.38
2019-03-25T09:02:22.753Z,8.33
2019-03-25T09:03:22.923Z,8.37
2019-03-25T09:04:23.095Z,8.42
2019-03-25T09:05:23.268Z,8.51
2019-03-25T09:06:23.437Z,8.42
2019-03-25T09:07:23.606Z,8.51
2019-03-25T09:08:23.775Z,8.60
2019-03-25T09:09:23.953Z,8.61
2019-03-25T09:10:24.120Z,8.48
2019-03-25T09:11:24.288Z,8.28
2019-03-25T09:12:24.460Z,8.52
2019-03-25T09:13:24.636Z,8.64
2019-03-25T09:14:24.801Z,8.79
2019-03-25T09:15:24.978Z,8.88
2019-03-25T09:16:25.143Z,9.89
2019-03-25T09:17:25.313Z,10.76
2019-03-25T09:18:25.482Z,10.84
2019-03-25T09:19:25.655Z,10.84
2019-03-25T09:20:25.828Z,11.15
2019-03-25T09:21:25.999Z,11.45
2019-03-25T09:22:26.168Z,12.32
2019-03-25T09:23:26.348Z,12.83
2019-03-25T09:24:26.514Z,13.25
2019-03-25T09:25:26.683Z,13.83
2019-03-25T09:26:26.855Z,14.23
2019-03-25T09:27:27.027Z,14.28
2019-03-25T09:28:27.205Z,14.47
2019-03-25T09:29:27.369Z,14.15
2019-03-25T09:30:27.542Z,14.50
2019-03-25T09:31:36.338Z,14.48
2019-03-25T09:32:27.889Z,13.87
2019-03-25T09:33:28.064Z,13.38
2019-03-25T09:34:28.238Z,12.86
2019-03-25T09:35:28.407Z,12.17
2019-03-25T09:36:28.580Z,11.55
2019-03-25T09:37:28.754Z,10.97
2019-03-25T09:38:28.926Z,10.76
2019-03-25T09:39:29.104Z,10.28
2019-03-25T09:40:29.274Z,9.99
2019-03-25T09:41:29.444Z,9.77
2019-03-25T09:42:29.617Z,9.58
2019-03-25T09:43:29.788Z,9.32
2019-03-25T09:44:29.960Z,9.32
2019-03-25T09:45:30.131Z,9.08
2019-03-25T09:46:30.301Z,9.10
2019-03-25T09:47:30.472Z,9.08
2019-03-25T09:48:30.645Z,9.04
2019-03-25T09:49:30.816Z,8.97
2019-03-25T09:50:30.988Z,9.02
2019-03-25T09:51:31.170Z,9.10
2019-03-25T09:52:38.523Z,9.11
2019-03-25T09:53:31.502Z,9.11
2019-03-25T09:54:31.674Z,9.31
2019-03-25T09:55:31.844Z,9.34
2019-03-25T09:56:32.015Z,9.47
2019-03-25T09:57:32.186Z,9.48
2019-03-25T09:58:36.454Z,9.56
2019-03-25T09:59:32.527Z,9.59
2019-03-25T10:00:32.697Z,9.76
2019-03-25T10:01:32.867Z,9.73
2019-03-25T10:02:33.039Z,9.73
2019-03-25T10:03:33.209Z,9.65
2019-03-25T10:04:33.380Z,9.65
2019-03-25T10:05:33.552Z,9.58
2019-03-25T10:06:33.723Z,9.41
2019-03-25T10:07:33.894Z,9.43
2019-03-25T10:08:34.068Z,9.32
2019-03-25T10:09:34.223Z,9.40
2019-03-25T10:10:34.396Z,9.58
2019-03-25T10:11:34.568Z,10.17
2019-03-25T10:12:34.740Z,10.93
2019-03-25T10:13:34.913Z,11.86
2019-03-25T10:14:35.083Z,12.28
2019-03-25T10:15:35.253Z,12.18
2019-03-25T10:16:35.423Z,11.77
2019-03-25T10:17:35.594Z,11.51
2019-03-25T10:18:35.765Z,10.93
2019-03-25T10:19:35.936Z,10.68
2019-03-25T10:20:36.105Z,10.48
2019-03-25T10:21:36.279Z,10.42
2019-03-25T10:22:36.455Z,10.17
2019-03-25T10:23:36.618Z,10.09
2019-03-25T10:24:36.787Z,9.92
2019-03-25T10:25:36.956Z,9.82
2019-03-25T10:26:37.128Z,10.04
2019-03-25T10:27:37.309Z,10.13
2019-03-25T10:28:47.876Z,10.26
2019-03-25T10:29:37.657Z,10.25
2019-03-25T10:30:37.828Z,10.07
2019-03-25T10:31:38.000Z,9.91
2019-03-25T10:32:38.170Z,9.77
2019-03-25T10:33:38.342Z,9.65
2019-03-25T10:34:38.515Z,9.44
2019-03-25T10:35:38.686Z,9.22
2019-03-25T10:36:38.860Z,8.89
2019-03-25T10:37:39.032Z,8.85
2019-03-25T10:38:39.205Z,8.56
2019-03-25T10:39:39.375Z,8.26
2019-03-25T10:40:39.549Z,7.98
2019-03-25T10:41:39.719Z,7.77
2019-03-25T10:42:39.900Z,7.72
2019-03-25T10:43:40.075Z,7.69
2019-03-25T10:44:40.240Z,7.57
2019-03-25T10:45:40.415Z,7.58
2019-03-25T10:46:40.589Z,7.63
2019-03-25T10:47:40.755Z,7.73
2019-03-25T10:48:40.928Z,7.90
2019-03-25T10:49:41.104Z,7.98
2019-03-25T10:50:41.275Z,7.98
2019-03-25T10:51:41.445Z,8.03
2019-03-25T10:52:41.612Z,8.15
2019-03-25T10:53:41.785Z,8.33
2019-03-25T10:54:41.982Z,8.64
2019-03-25T10:55:42.127Z,8.89
2019-03-25T10:56:48.994Z,8.95
2019-03-25T10:57:42.462Z,9.16
2019-03-25T10:58:42.632Z,9.21
2019-03-25T10:59:42.804Z,9.25
2019-03-25T11:00:42.973Z,9.04
2019-03-25T11:01:43.144Z,8.88
2019-03-25T11:02:43.316Z,8.69
2019-03-25T11:03:43.489Z,8.60
2019-03-25T11:04:43.655Z,8.45
2019-03-25T11:05:43.826Z,8.44
2019-03-25T11:06:43.993Z,8.53
2019-03-25T11:07:44.164Z,8.37
2019-03-25T11:08:44.336Z,8.41
2019-03-25T11:09:44.505Z,8.44
2019-03-25T11:10:44.665Z,8.73
2019-03-25T11:11:44.835Z,8.85
2019-03-25T11:12:45.009Z,9.06
2019-03-25T11:13:45.177Z,9.06
2019-03-25T11:14:45.348Z,9.22
2019-03-25T11:15:45.537Z,9.54
2019-03-25T11:16:45.696Z,9.89
2019-03-25T11:17:45.880Z,10.67
2019-03-25T11:18:46.048Z,11.40
2019-03-25T11:19:46.219Z,12.00
2019-03-25T11:20:46.389Z,12.37
2019-03-25T11:21:46.559Z,12.82
2019-03-25T11:22:46.731Z,13.35
2019-03-25T11:23:46.904Z,13.54
2019-03-25T11:24:47.073Z,13.71
2019-03-25T11:25:47.252Z,14.18
2019-03-25T11:26:47.414Z,14.41
2019-03-25T11:27:54.304Z,14.20
2019-03-25T11:28:47.759Z,14.36
2019-03-25T11:29:47.929Z,15.02
2019-03-25T11:30:48.103Z,15.33
2019-03-25T11:31:48.279Z,15.88
2019-03-25T11:32:48.450Z,16.53
2019-03-25T11:33:48.624Z,16.75
2019-03-25T11:34:48.804Z,16.71
2019-03-25T11:35:48.974Z,16.49
2019-03-25T11:36:49.152Z,15.90
2019-03-25T11:37:49.323Z,15.77
2019-03-25T11:38:49.500Z,15.33
2019-03-25T11:39:49.676Z,15.68
2019-03-25T11:40:49.849Z,15.97
2019-03-25T11:41:50.026Z,16.21
2019-03-25T11:42:50.198Z,16.97
2019-03-25T11:43:50.376Z,17.27
2019-03-25T11:44:50.549Z,16.54
2019-03-25T11:45:50.727Z,16.13
2019-03-25T11:46:50.902Z,16.26
2019-03-25T11:47:51.078Z,16.97
2019-03-25T11:48:51.255Z,16.84
2019-03-25T11:49:51.432Z,16.16
2019-03-25T11:50:51.611Z,15.70
2019-03-25T11:51:51.799Z,15.33
2019-03-25T11:52:51.973Z,15.14
2019-03-25T11:53:52.220Z,15.07
2019-03-25T11:54:52.334Z,14.40
2019-03-25T11:55:52.515Z,13.75
2019-03-25T11:56:52.689Z,13.53
2019-03-25T11:57:52.866Z,13.35
2019-03-25T11:58:53.042Z,13.12
2019-03-25T11:59:53.219Z,12.61
2019-03-25T12:00:53.394Z,12.62
2019-03-25T12:01:53.572Z,12.83
2019-03-25T12:02:53.747Z,13.15
2019-03-25T12:03:53.926Z,13.63
2019-03-25T12:04:54.101Z,13.19
2019-03-25T12:05:54.277Z,12.78
2019-03-25T12:06:54.451Z,12.65
2019-03-25T12:07:54.628Z,12.17
2019-03-25T12:08:54.805Z,11.33
2019-03-25T12:09:54.979Z,10.81
2019-03-25T12:10:55.150Z,10.96
2019-03-25T12:11:55.328Z,11.41
2019-03-25T12:12:55.503Z,11.83
2019-03-25T12:13:55.677Z,11.86
2019-03-25T12:14:55.900Z,12.10
2019-03-25T12:15:56.024Z,11.57
2019-03-25T12:16:56.199Z,10.90
2019-03-25T12:17:56.374Z,10.30
2019-03-25T12:18:56.550Z,9.77
2019-03-25T12:19:56.729Z,9.54
2019-03-25T12:20:56.898Z,9.36
2019-03-25T12:21:57.073Z,8.91
2019-03-25T12:22:57.247Z,8.58
2019-03-25T12:23:57.421Z,8.42
2019-03-25T12:24:57.639Z,8.26
2019-03-25T12:25:57.773Z,8.61
2019-03-25T12:26:57.946Z,9.98
2019-03-25T12:27:58.119Z,11.22
2019-03-25T12:28:58.291Z,12.20
2019-03-25T12:29:58.463Z,13.15
2019-03-25T12:30:58.638Z,13.93
2019-03-25T12:31:58.815Z,14.54
2019-03-25T12:33:03.920Z,14.47
2019-03-25T12:33:59.163Z,13.77
2019-03-25T12:34:59.332Z,13.79
2019-03-25T12:35:59.506Z,13.30
2019-03-25T12:36:59.685Z,12.91
2019-03-25T12:37:59.856Z,12.72
2019-03-25T12:39:00.031Z,12.58
2019-03-25T12:40:00.311Z,12.78
2019-03-25T12:41:00.390Z,12.67
2019-03-25T12:42:00.555Z,12.85
2019-03-25T12:43:00.727Z,12.65
2019-03-25T12:44:00.903Z,12.83
2019-03-25T12:45:01.074Z,12.70
2019-03-25T12:46:01.249Z,12.72
2019-03-25T12:47:01.421Z,13.57
2019-03-25T12:48:01.598Z,14.47
2019-03-25T12:49:01.770Z,14.86
2019-03-25T12:50:01.945Z,15.52
2019-03-25T12:51:02.120Z,15.52
2019-03-25T12:52:02.296Z,14.79
2019-03-25T12:53:02.471Z,13.89
2019-03-25T12:54:02.646Z,13.13
2019-03-25T12:55:02.820Z,12.39
2019-03-25T12:56:03.057Z,11.86
2019-03-25T12:57:03.174Z,11.26
2019-03-25T12:58:03.342Z,10.57
2019-03-25T12:59:03.518Z,10.01
2019-03-25T13:00:03.686Z,9.62
2019-03-25T13:01:03.851Z,9.47
2019-03-25T13:02:04.023Z,9.22
2019-03-25T13:03:04.200Z,9.02
2019-03-25T13:04:04.373Z,8.88
2019-03-25T13:05:04.550Z,8.53
2019-03-25T13:06:04.722Z,8.30
2019-03-25T13:07:04.896Z,8.27
2019-03-25T13:08:05.074Z,8.23
2019-03-25T13:09:05.243Z,8.19
2019-03-25T13:10:05.414Z,8.28
2019-03-25T13:11:05.588Z,8.33
2019-03-25T13:12:05.763Z,8.45
2019-03-25T13:13:05.934Z,8.70
2019-03-25T13:14:06.109Z,8.64
2019-03-25T13:15:06.282Z,8.64
2019-03-25T13:16:06.452Z,8.81
2019-03-25T13:17:06.627Z,9.37
2019-03-25T13:18:06.796Z,10.12
2019-03-25T13:19:06.967Z,10.89
2019-03-25T13:20:07.138Z,11.69
2019-03-25T13:21:07.317Z,12.67
2019-03-25T13:22:07.487Z,13.46
2019-03-25T13:23:07.658Z,13.99
2019-03-25T13:24:07.830Z,14.12
2019-03-25T13:25:08.003Z,13.87
2019-03-25T13:26:08.177Z,13.53
2019-03-25T13:27:08.356Z,13.44
2019-03-25T13:28:08.529Z,13.87
2019-03-25T13:29:08.700Z,13.44
2019-03-25T13:30:08.876Z,12.82
2019-03-25T13:31:09.048Z,12.42
2019-03-25T13:32:09.225Z,12.46
2019-03-25T13:33:09.392Z,12.42
2019-03-25T13:34:09.553Z,12.18
2019-03-25T13:35:09.722Z,12.73
2019-03-25T13:36:09.894Z,13.89
2019-03-25T13:37:10.068Z,13.77
2019-03-25T13:38:10.243Z,13.97
2019-03-25T13:39:10.417Z,13.56
2019-03-25T13:40:10.593Z,13.54
2019-03-25T13:41:10.767Z,13.86
2019-03-25T13:42:10.941Z,14.86
2019-03-25T13:43:11.119Z,15.11
2019-03-25T13:44:11.283Z,15.51
2019-03-25T13:45:11.457Z,15.88
2019-03-25T13:46:11.631Z,16.54
2019-03-25T13:47:11.807Z,16.64
2019-03-25T13:48:11.982Z,16.39
2019-03-25T13:49:12.159Z,15.46
2019-03-25T13:50:12.333Z,15.57
2019-03-25T13:51:12.510Z,15.22
2019-03-25T13:52:12.684Z,16.00
2019-03-25T13:53:12.861Z,16.33
2019-03-25T13:54:13.034Z,16.50
2019-03-25T13:55:13.209Z,16.50
2019-03-25T13:56:13.384Z,16.79
2019-03-25T13:57:13.562Z,16.53
2019-03-25T13:58:13.740Z,16.69
2019-03-25T13:59:13.913Z,16.76
2019-03-25T14:00:14.097Z,17.23
2019-03-25T14:01:14.267Z,17.65
2019-03-25T14:02:14.444Z,17.85
2019-03-25T14:03:14.623Z,17.48
2019-03-25T14:04:14.798Z,15.91
2019-03-25T14:05:14.977Z,15.02
2019-03-25T14:06:15.154Z,14.66
2019-03-25T14:07:15.333Z,14.23
2019-03-25T14:08:15.511Z,14.65
2019-03-25T14:09:15.688Z,14.68
2019-03-25T14:10:15.865Z,14.32
2019-03-25T14:11:16.042Z,14.51
2019-03-25T14:12:16.217Z,15.76
2019-03-25T14:13:16.398Z,16.47
2019-03-25T14:14:16.573Z,16.20
2019-03-25T14:15:16.750Z,16.76
2019-03-25T14:16:16.996Z,17.41
2019-03-25T14:17:17.134Z,18.08
2019-03-25T14:18:17.329Z,18.25
2019-03-25T14:19:17.503Z,18.35
2019-03-25T14:20:17.679Z,18.33
2019-03-25T14:21:17.859Z,18.73
2019-03-25T14:22:18.036Z,17.29
2019-03-25T14:23:18.227Z,16.04
2019-03-25T14:24:18.382Z,15.24
2019-03-25T14:25:18.559Z,14.65
2019-03-25T14:26:18.737Z,14.47
2019-03-25T14:27:18.915Z,13.97
2019-03-25T14:28:19.094Z,14.05
2019-03-25T14:29:19.285Z,13.53
2019-03-25T14:30:19.443Z,13.18
2019-03-25T14:31:19.619Z,12.32
2019-03-25T14:32:19.799Z,11.80
2019-03-25T14:33:19.978Z,11.40
2019-03-25T14:34:20.150Z,11.02
2019-03-25T14:35:20.329Z,10.82
2019-03-25T14:36:20.509Z,10.67
2019-03-25T14:37:20.679Z,10.30
2019-03-25T14:38:20.855Z,10.07
2019-03-25T14:39:21.034Z,9.92
2019-03-25T14:40:21.210Z,9.79
2019-03-25T14:41:21.385Z,9.76
2019-03-25T14:42:21.563Z,9.74
2019-03-25T14:43:21.787Z,9.65
2019-03-25T14:44:21.907Z,9.55
2019-03-25T14:45:26.306Z,9.50
2019-03-25T14:46:22.258Z,9.59
2019-03-25T14:47:22.432Z,9.69
2019-03-25T14:48:22.610Z,9.64
2019-03-25T14:49:22.780Z,9.76
2019-03-25T14:50:22.956Z,10.12
2019-03-25T14:51:23.127Z,10.99
2019-03-25T14:52:23.304Z,12.40
2019-03-25T14:53:23.477Z,13.79
2019-03-25T14:54:23.649Z,14.86
2019-03-25T14:55:23.822Z,15.70
2019-03-25T14:56:23.999Z,16.49
2019-03-25T14:57:24.171Z,16.76
2019-03-25T14:58:24.343Z,16.90
2019-03-25T14:59:24.513Z,16.42
2019-03-25T15:00:25.723Z,16.17
2019-03-25T15:01:24.887Z,15.54
2019-03-25T15:02:25.064Z,14.62
2019-03-25T15:03:25.241Z,13.87
2019-03-25T15:04:25.414Z,13.20
2019-03-25T15:05:25.590Z,12.58
2019-03-25T15:06:25.765Z,12.24
2019-03-25T15:07:25.942Z,11.63
2019-03-25T15:08:26.123Z,11.27
2019-03-25T15:09:26.293Z,10.92
2019-03-25T15:10:26.467Z,10.76
2019-03-25T15:11:26.643Z,10.60
2019-03-25T15:12:26.818Z,10.37
2019-03-25T15:13:26.992Z,10.33
2019-03-25T15:14:27.167Z,10.10
2019-03-25T15:15:27.349Z,9.80
2019-03-25T15:16:27.522Z,9.68
2019-03-25T15:17:27.697Z,9.74
2019-03-25T15:18:27.868Z,9.58
2019-03-25T15:19:28.048Z,9.61
2019-03-25T15:20:28.218Z,9.44
2019-03-25T15:21:28.390Z,9.21
2019-03-25T15:22:28.565Z,9.08
2019-03-25T15:23:28.738Z,9.02
2019-03-25T15:24:28.909Z,9.03
2019-03-25T15:25:29.081Z,8.89
2019-03-25T15:26:29.251Z,8.74
2019-03-25T15:27:29.423Z,8.61
2019-03-25T15:28:29.600Z,8.42
2019-03-25T15:29:29.767Z,8.23
2019-03-25T15:30:35.899Z,8.12
2019-03-25T15:31:30.125Z,8.01
2019-03-25T15:32:30.299Z,8.00
2019-03-25T15:33:30.469Z,7.87
2019-03-25T15:34:30.640Z,7.94
2019-03-25T15:35:30.812Z,7.91
2019-03-25T15:36:30.984Z,7.93
2019-03-25T15:37:31.155Z,7.95
2019-03-25T15:38:31.326Z,7.94
2019-03-25T15:39:31.501Z,7.82
2019-03-25T15:40:31.701Z,7.90
2019-03-25T15:41:31.839Z,7.90
2019-03-25T15:42:32.011Z,8.08
2019-03-25T15:43:32.187Z,7.98
2019-03-25T15:44:32.355Z,8.01
2019-03-25T15:45:32.527Z,8.01
2019-03-25T15:46:32.704Z,7.93
2019-03-25T15:47:32.920Z,7.94
2019-03-25T15:48:33.044Z,7.88
2019-03-25T15:49:33.217Z,7.88
2019-03-25T15:50:33.385Z,7.80
2019-03-25T15:51:33.555Z,7.94
2019-03-25T15:52:33.728Z,7.83
2019-03-25T15:53:33.899Z,7.82
2019-03-25T15:54:34.073Z,8.05
2019-03-25T15:55:34.240Z,8.28
2019-03-25T15:56:34.410Z,8.58
2019-03-25T15:57:34.578Z,8.91
2019-03-25T15:58:34.754Z,8.95
2019-03-25T15:59:34.921Z,9.14
2019-03-25T16:00:46.489Z,9.44
2019-03-25T16:01:35.262Z,9.46
2019-03-25T16:02:35.437Z,9.59
2019-03-25T16:03:35.600Z,9.59
2019-03-25T16:04:35.770Z,9.69
2019-03-25T16:05:35.941Z,9.40
2019-03-25T16:06:36.113Z,9.18
2019-03-25T16:07:36.284Z,8.84
2019-03-25T16:08:36.454Z,8.69
2019-03-25T16:09:36.626Z,8.48
2019-03-25T16:10:36.795Z,8.42
2019-03-25T16:11:36.967Z,8.19
2019-03-25T16:12:37.137Z,8.18
2019-03-25T16:13:37.308Z,7.97
2019-03-25T16:14:37.479Z,7.94
2019-03-25T16:15:37.654Z,7.75
2019-03-25T16:16:37.825Z,7.83
2019-03-25T16:17:37.994Z,7.73
2019-03-25T16:18:38.166Z,7.77
2019-03-25T16:19:38.334Z,7.56
2019-03-25T16:20:38.510Z,7.43
2019-03-25T16:21:38.677Z,7.42
2019-03-25T16:22:38.845Z,7.20
2019-03-25T16:23:39.015Z,7.20
2019-03-25T16:24:39.185Z,7.06
2019-03-25T16:25:39.355Z,6.84
2019-03-25T16:26:39.526Z,6.88
2019-03-25T16:27:39.701Z,6.97
2019-03-25T16:28:39.869Z,7.29
2019-03-25T16:29:40.040Z,7.73
2019-03-25T16:30:40.210Z,8.16
2019-03-25T16:31:40.386Z,8.36
2019-03-25T16:32:40.551Z,8.48
2019-03-25T16:33:40.746Z,8.85
2019-03-25T16:34:40.891Z,9.03
2019-03-25T16:35:41.060Z,9.43
2019-03-25T16:36:41.238Z,9.64
2019-03-25T16:37:41.402Z,9.77
2019-03-25T16:38:41.585Z,9.76
2019-03-25T16:39:41.748Z,9.43
2019-03-25T16:40:41.919Z,9.21
2019-03-25T16:41:42.088Z,8.91
2019-03-25T16:42:42.265Z,8.87
2019-03-25T16:43:42.432Z,8.78
2019-03-25T16:44:42.601Z,8.67
2019-03-25T16:45:42.773Z,8.46
2019-03-25T16:46:42.943Z,8.42
2019-03-25T16:47:43.117Z,8.28
2019-03-25T16:48:43.287Z,8.10
2019-03-25T16:49:43.457Z,8.08
2019-03-25T16:50:43.629Z,8.00
2019-03-25T16:51:43.812Z,7.95
2019-03-25T16:52:43.968Z,7.87
2019-03-25T16:53:44.137Z,7.83
2019-03-25T16:54:44.308Z,7.93
2019-03-25T16:55:44.480Z,7.87
2019-03-25T16:56:44.652Z,7.79
2019-03-25T16:57:44.823Z,7.82
2019-03-25T16:58:44.996Z,7.80
2019-03-25T16:59:45.165Z,7.77
2019-03-25T17:00:45.337Z,7.70
2019-03-25T17:01:45.512Z,7.66
2019-03-25T17:02:45.677Z,7.70
2019-03-25T17:03:45.842Z,7.75
2019-03-25T17:04:46.007Z,7.67
2019-03-25T17:05:46.180Z,7.67
2019-03-25T17:06:46.350Z,7.61
2019-03-25T17:07:46.522Z,7.66
2019-03-25T17:08:46.694Z,7.61
2019-03-25T17:09:46.863Z,7.56
2019-03-25T17:10:47.037Z,7.54
2019-03-25T17:11:47.207Z,7.50
2019-03-25T17:12:47.373Z,7.48
2019-03-25T17:13:47.545Z,7.47
2019-03-25T17:14:47.715Z,7.43
2019-03-25T17:15:47.885Z,7.47
2019-03-25T17:16:48.056Z,7.35
2019-03-25T17:17:48.219Z,7.36
2019-03-25T17:18:48.409Z,7.29
2019-03-25T17:19:48.568Z,7.32
2019-03-25T17:20:48.738Z,7.31
2019-03-25T17:21:57.651Z,7.24
2019-03-25T17:22:49.077Z,7.25
2019-03-25T17:23:49.250Z,7.25
2019-03-25T17:24:49.420Z,7.31
2019-03-25T17:25:53.249Z,7.23
2019-03-25T17:26:49.762Z,7.28
2019-03-25T17:27:49.930Z,7.13
2019-03-25T17:28:50.137Z,7.06
2019-03-25T17:29:50.277Z,6.96
2019-03-25T17:30:50.447Z,6.96
2019-03-25T17:31:50.618Z,6.95
2019-03-25T17:32:50.789Z,7.00
2019-03-25T17:33:50.959Z,7.02
2019-03-25T17:34:51.131Z,6.95
2019-03-25T17:35:51.317Z,6.89
2019-03-25T17:36:51.486Z,6.89
2019-03-25T17:37:51.655Z,6.88
2019-03-25T17:38:51.822Z,6.89
2019-03-25T17:39:51.991Z,6.85
2019-03-25T17:40:52.162Z,6.79
2019-03-25T17:41:52.373Z,6.69
2019-03-25T17:42:52.502Z,6.69
2019-03-25T17:43:52.672Z,6.67
2019-03-25T17:44:52.842Z,6.64
2019-03-25T17:45:53.018Z,6.69
2019-03-25T17:46:53.184Z,6.67
2019-03-25T17:47:53.361Z,6.57
2019-03-25T17:48:53.528Z,6.63
2019-03-25T17:49:53.695Z,6.66
2019-03-25T17:50:53.865Z,6.66
2019-03-25T17:51:54.036Z,6.64
2019-03-25T17:52:54.207Z,6.63
2019-03-25T17:53:54.379Z,6.57
2019-03-25T17:54:54.604Z,6.54
2019-03-25T17:55:54.768Z,6.59
2019-03-25T17:56:54.934Z,6.54
2019-03-25T17:57:55.103Z,6.52
2019-03-25T17:58:55.263Z,6.57
2019-03-25T17:59:55.435Z,6.46
2019-03-25T18:00:55.610Z,6.46
2019-03-25T18:01:55.776Z,6.45
2019-03-25T18:02:55.945Z,6.38
2019-03-25T18:03:56.116Z,6.44
2019-03-25T18:04:56.286Z,6.41
2019-03-25T18:05:56.457Z,6.42
2019-03-25T18:06:56.628Z,6.35
2019-03-25T18:07:56.808Z,6.30
2019-03-25T18:08:56.967Z,6.51
2019-03-25T18:09:57.182Z,6.46
2019-03-25T18:10:57.310Z,6.51
2019-03-25T18:11:57.478Z,6.57
2019-03-25T18:12:57.648Z,6.56
2019-03-25T18:13:57.826Z,6.46
2019-03-25T18:14:58.027Z,6.57
2019-03-25T18:15:58.233Z,6.57
2019-03-25T18:16:58.369Z,6.51
2019-03-25T18:17:58.538Z,6.64
2019-03-25T18:18:58.706Z,6.63
2019-03-25T18:20:00.136Z,6.57
2019-03-25T18:20:59.043Z,6.66
2019-03-25T18:21:59.215Z,6.66
2019-03-25T18:22:59.380Z,6.49
2019-03-25T18:23:59.549Z,6.63
2019-03-25T18:24:59.723Z,6.57
2019-03-25T18:25:59.884Z,6.57
2019-03-25T18:27:00.060Z,6.52
2019-03-25T18:28:00.226Z,6.67
2019-03-25T18:29:00.395Z,6.60
2019-03-25T18:30:00.562Z,6.52
2019-03-25T18:31:00.728Z,6.31
2019-03-25T18:32:00.898Z,6.36
2019-03-25T18:33:01.065Z,6.36
2019-03-25T18:34:01.235Z,6.30
2019-03-25T18:35:01.406Z,6.30
2019-03-25T18:36:01.577Z,6.24
2019-03-25T18:37:01.744Z,6.14
2019-03-25T18:38:01.917Z,6.11
2019-03-25T18:39:02.086Z,6.08
2019-03-25T18:40:02.255Z,6.12
2019-03-25T18:41:02.423Z,6.09
2019-03-25T18:42:02.593Z,6.01
2019-03-25T18:43:02.764Z,5.97
2019-03-25T18:44:02.934Z,6.07
2019-03-25T18:45:03.103Z,6.05
2019-03-25T18:46:03.282Z,6.02
2019-03-25T18:47:03.447Z,6.02
2019-03-25T18:48:03.624Z,5.99
2019-03-25T18:49:03.807Z,5.87
2019-03-25T18:50:03.947Z,5.89
2019-03-25T18:51:04.118Z,6.01
2019-03-25T18:52:04.308Z,5.97
2019-03-25T18:53:04.458Z,6.20
2019-03-25T18:54:04.630Z,6.20
2019-03-25T18:55:04.809Z,6.27
2019-03-25T18:56:04.972Z,6.20
2019-03-25T18:57:05.146Z,6.26
2019-03-25T18:58:05.309Z,6.39
2019-03-25T18:59:05.479Z,6.33
2019-03-25T19:00:05.661Z,6.36
2019-03-25T19:01:05.838Z,6.35
2019-03-25T19:02:05.992Z,6.39
2019-03-25T19:03:06.190Z,6.35
2019-03-25T19:04:06.342Z,6.38
2019-03-25T19:05:06.513Z,6.33
2019-03-25T19:06:06.680Z,6.26
2019-03-25T19:07:06.837Z,6.33
2019-03-25T19:08:07.007Z,6.35
2019-03-25T19:09:07.179Z,6.24
2019-03-25T19:10:07.361Z,6.19
2019-03-25T19:11:07.510Z,6.30
2019-03-25T19:12:07.686Z,6.30
2019-03-25T19:13:07.861Z,6.26
2019-03-25T19:14:08.029Z,6.19
2019-03-25T19:15:08.188Z,6.19
2019-03-25T19:16:08.350Z,6.30
2019-03-25T19:17:08.540Z,6.33
2019-03-25T19:18:08.756Z,6.24
2019-03-25T19:19:08.862Z,6.30
2019-03-25T19:20:09.055Z,6.28
2019-03-25T19:21:09.211Z,6.28
2019-03-25T19:22:09.369Z,6.33
2019-03-25T19:23:09.559Z,6.27
2019-03-25T19:24:09.707Z,6.33
2019-03-25T19:25:09.908Z,6.27
2019-03-25T19:26:10.047Z,6.35
2019-03-25T19:27:10.222Z,6.45
2019-03-25T19:28:10.405Z,6.41
2019-03-25T19:29:10.560Z,6.51
2019-03-25T19:30:10.760Z,6.38
2019-03-25T19:31:10.935Z,6.30
2019-03-25T19:32:11.073Z,6.27
2019-03-25T19:33:11.244Z,6.35
2019-03-25T19:34:11.410Z,6.36
2019-03-25T19:35:11.581Z,6.31
2019-03-25T19:36:11.740Z,6.30
2019-03-25T19:37:11.924Z,6.30
2019-03-25T19:38:12.080Z,6.33
2019-03-25T19:39:12.252Z,6.30
2019-03-25T19:40:12.428Z,6.22
2019-03-25T19:41:12.590Z,6.24
2019-03-25T19:42:12.788Z,6.28
2019-03-25T19:43:12.931Z,6.26
2019-03-25T19:44:13.120Z,6.30
2019-03-25T19:45:13.340Z,6.31
2019-03-25T19:46:13.441Z,6.30
2019-03-25T19:47:13.630Z,6.20
2019-03-25T19:48:13.797Z,6.28
2019-03-25T19:49:13.970Z,6.26
2019-03-25T19:50:14.135Z,6.30
2019-03-25T19:51:14.346Z,6.35
2019-03-25T19:52:14.456Z,6.38
2019-03-25T19:53:19.291Z,6.30
2019-03-25T19:54:14.800Z,6.33
2019-03-25T19:55:14.962Z,6.41
2019-03-25T19:56:15.130Z,6.38
2019-03-25T19:57:15.293Z,6.35
2019-03-25T19:58:15.466Z,6.42
2019-03-25T19:59:15.673Z,6.42
2019-03-25T20:00:15.806Z,6.46
2019-03-25T20:01:15.990Z,6.46
2019-03-25T20:02:19.180Z,6.46
2019-03-25T20:03:16.313Z,6.48
2019-03-25T20:04:16.530Z,6.60
2019-03-25T20:05:16.682Z,6.57
2019-03-25T20:06:25.715Z,6.52
2019-03-25T20:07:16.994Z,6.56
2019-03-25T20:08:17.163Z,6.59
2019-03-25T20:09:17.334Z,6.62
2019-03-25T20:10:17.533Z,6.57
2019-03-25T20:11:17.715Z,6.60
2019-03-25T20:12:17.847Z,6.63
2019-03-25T20:13:18.076Z,6.63
2019-03-25T20:14:18.212Z,6.69
2019-03-25T20:15:18.394Z,6.63
2019-03-25T20:16:18.530Z,6.66
2019-03-25T20:17:18.724Z,6.60
2019-03-25T20:18:18.883Z,6.72
2019-03-25T20:19:19.038Z,6.66
2019-03-25T20:20:19.237Z,6.62
2019-03-25T20:21:19.401Z,6.72
2019-03-25T20:22:19.634Z,6.72
2019-03-25T20:23:19.752Z,6.62
2019-03-25T20:24:19.895Z,6.72
2019-03-25T20:25:20.055Z,6.72
2019-03-25T20:26:20.222Z,6.70
2019-03-25T20:27:20.406Z,6.67
2019-03-25T20:28:20.564Z,6.79
2019-03-25T20:29:20.782Z,6.75
2019-03-25T20:30:20.900Z,6.74
2019-03-25T20:31:21.098Z,6.64
2019-03-25T20:32:31.265Z,6.63
2019-03-25T20:33:21.410Z,6.64
2019-03-25T20:34:21.589Z,6.67
2019-03-25T20:35:21.772Z,6.69
2019-03-25T20:36:21.961Z,6.75
2019-03-25T20:37:22.148Z,6.78
2019-03-25T20:38:22.265Z,6.87
2019-03-25T20:39:22.434Z,6.74
2019-03-25T20:40:22.611Z,6.72
2019-03-25T20:41:22.800Z,6.66
2019-03-25T20:42:22.973Z,6.64
2019-03-25T20:43:23.188Z,6.62
2019-03-25T20:44:23.287Z,6.66
2019-03-25T20:45:23.524Z,6.77
2019-03-25T20:46:23.637Z,6.52
2019-03-25T20:47:23.802Z,6.62
2019-03-25T20:48:23.971Z,6.69
2019-03-25T20:49:24.148Z,6.66
2019-03-25T20:50:24.332Z,6.64
2019-03-25T20:51:24.518Z,6.64
2019-03-25T20:52:24.823Z,6.64
2019-03-25T20:53:24.869Z,6.49